235км ВСТО ЛЧ

Карта отелей и гостиниц, располагающихся рядом с аэропортом 235км ВСТО ЛЧ :

235км ВСТО ЛЧ Иркутская область 56° 24' 23.5008" N, 101° 7' 26.04" E
Код аэродрома ИКАО: 
HJ2P
Код аэродрома RU: 
ХЙ2П
Координаты: 
N56.40653° E101.12390°
Превышение над уровнем моря : 
548
Основная полоса: 
01/19
Курс магнитный: 
012,4/192,4
Длина основной ВПП: 
24
Ширина основной ВПП: 
21
Покрытие основной ВПП: 
Твёрдое
Освещение ВПП: 
По запросу
Тип: 
Вертодром
Класс аэродрома: 
Принадлежность: 
ГА
Статус: 
Действующий
Сайт: 
E-mail аэродрома: 
Страна: 
Россия
Регион: 
Иркутская область
Город: 
Дополнительная информация: 
Горный. Владелец ПП: нет данных.

Найти трансфер

С помощью этой формы Вы можете найти трансфер из аэропорта 235км ВСТО ЛЧ в город, аэропорт или вокзал:

Карта места

Javascript is required to view this map.

Погода в аэропортах:

Авиационная погода в Куусамо

Регион: 
Погода METAR: 
EFKS 270720Z 08008KT 040V120 9000 RA BKN006 OVC027 06/05 Q1025
Время наблюдения: 
2020-09-27T07:20:00Z
Температура C: 
6.0
Точка росы: 
5.0
Направление ветра: 
80
Скорость ветра (узлы): 
8
Метеорологическая видимость: 
5.59
Явления погоды: 
RA
Условия полета: 
IFR

Авиационная погода в Ивало

Регион: 
Погода METAR: 
EFIV 270720Z AUTO 25004KT 0900 R22/1200D FZFG VV003 M01/M02 Q1030
Время наблюдения: 
2020-09-27T07:20:00Z
Температура C: 
-1.0
Точка росы: 
-2.0
Направление ветра: 
250
Скорость ветра (узлы): 
4
Метеорологическая видимость: 
0.56
Явления погоды: 
FZFG
Условия полета: 
LIFR

Авиационная погода в Минеральные Воды

Регион: 
Погода METAR: 
URMM 270730Z 11007MPS 9999 -DZ OVC009 18/15 Q1018 R12/090070 NOSIG RMK MT OBSC QFE735/0980
Время наблюдения: 
2020-09-27T07:30:00Z
Температура C: 
18.0
Точка росы: 
15.0
Направление ветра: 
110
Скорость ветра (узлы): 
14
Метеорологическая видимость: 
6.21
Явления погоды: 
-DZ
Условия полета: 
IFR
Аэропорт подробнее: 

Авиационная погода в Виннице

Регион: 
Погода METAR: 
UKWW 270730Z 15004MPS 9999 -SHRA BKN018CB 17/16 Q1002 NOSIG
Время наблюдения: 
2020-09-27T07:30:00Z
Температура C: 
17.0
Точка росы: 
16.0
Направление ветра: 
150
Скорость ветра (узлы): 
8
Метеорологическая видимость: 
6.21
Явления погоды: 
-SHRA
Условия полета: 
MVFR
Аэропорт подробнее: